Time;durP1;ratioP1;P1;durP2;ratioP2;P2;SDS_P1;SDS_P2;PMS_P1;PMS_P2;Temp;Humidity;BMP_temperature;BMP_pressure;BME280_temperature;BME280_humidity;BME280_pressure;Samples;Min_cycle;Max_cycle;Signal;HPM_P1;HPM_P2
2021/11/15 00:02:19;;;;;;;29.77;17.10;;;;;;;;;;5017927;28;20610;-73
2021/11/15 00:04:44;;;;;;;26.13;15.23;;;;;;;;;;5002525;28;20227;-72
2021/11/15 00:07:09;;;;;;;25.30;14.27;;;;;;;;;;5010122;28;21366;-72
2021/11/15 00:09:35;;;;;;;26.90;14.10;;;;;;;;;;5007262;28;20206;-73
2021/11/15 00:12:01;;;;;;;23.43;13.97;;;;;;;;;;5018110;28;20272;-73
2021/11/15 00:14:27;;;;;;;24.07;14.23;;;;;;;;;;5022259;28;20592;-72
2021/11/15 00:16:52;;;;;;;26.57;15.30;;;;;;;;;;5012550;28;20224;-72
2021/11/15 00:19:18;;;;;;;23.70;14.80;;;;;;;;;;5019142;28;20261;-73
2021/11/15 00:21:43;;;;;;;25.93;15.67;;;;;;;;;;5007652;28;20287;-73
2021/11/15 00:24:12;;;;;;;23.43;14.07;;;;;;;;;;5014134;28;20183;-73
2021/11/15 00:26:38;;;;;;;25.67;14.70;;;;;;;;;;5015613;28;20199;-73
2021/11/15 00:29:04;;;;;;;26.43;15.10;;;;;;;;;;5021094;28;20368;-73
2021/11/15 00:31:29;;;;;;;25.57;15.20;;;;;;;;;;5014114;28;20186;-73
2021/11/15 00:33:55;;;;;;;27.80;14.87;;;;;;;;;;5028466;28;20196;-74
2021/11/15 00:36:22;;;;;;;23.77;14.93;;;;;;;;;;5015933;28;20186;-74
2021/11/15 00:38:47;;;;;;;27.87;14.83;;;;;;;;;;5024857;28;20198;-73
2021/11/15 00:41:13;;;;;;;25.97;14.73;;;;;;;;;;5013406;28;20660;-73
2021/11/15 00:43:38;;;;;;;23.57;14.50;;;;;;;;;;5024520;28;20181;-73
2021/11/15 00:46:04;;;;;;;24.60;14.80;;;;;;;;;;5023657;28;20189;-73
2021/11/15 00:48:30;;;;;;;25.77;14.90;;;;;;;;;;5016410;28;20230;-73
2021/11/15 00:50:55;;;;;;;28.02;15.95;;;;;;;;;;5025613;28;20205;-73
2021/11/15 00:53:21;;;;;;;25.38;15.35;;;;;;;;;;5019764;28;20729;-73
2021/11/15 00:55:46;;;;;;;27.27;15.60;;;;;;;;;;5020576;28;20202;-73
2021/11/15 00:58:11;;;;;;;25.60;15.30;;;;;;;;;;5015633;28;20190;-73
2021/11/15 01:00:38;;;;;;;26.90;16.23;;;;;;;;;;5026975;28;20178;-74
2021/11/15 01:03:08;;;;;;;28.80;15.65;;;;;;;;;;5012228;28;20187;-74
2021/11/15 01:05:35;;;;;;;26.00;15.37;;;;;;;;;;5005025;28;20285;-74
2021/11/15 01:08:01;;;;;;;24.60;15.07;;;;;;;;;;4996557;28;20187;-73
2021/11/15 01:10:26;;;;;;;25.35;15.23;;;;;;;;;;5001205;28;20193;-73
2021/11/15 01:12:52;;;;;;;27.42;15.35;;;;;;;;;;4990640;28;21232;-73
2021/11/15 01:15:21;;;;;;;26.05;15.70;;;;;;;;;;5005134;28;20522;-73
2021/11/15 01:17:48;;;;;;;28.10;17.00;;;;;;;;;;4996922;28;20186;-73
2021/11/15 01:20:17;;;;;;;28.67;17.30;;;;;;;;;;4996216;28;20253;-73
2021/11/15 01:22:42;;;;;;;29.13;16.50;;;;;;;;;;5000084;28;20662;-74
2021/11/15 01:25:09;;;;;;;27.33;16.60;;;;;;;;;;4992965;28;20183;-73
2021/11/15 01:27:35;;;;;;;30.50;16.77;;;;;;;;;;5001922;28;20190;-73
2021/11/15 01:30:01;;;;;;;28.83;16.53;;;;;;;;;;4993998;28;20266;-73
2021/11/15 01:32:27;;;;;;;31.55;17.20;;;;;;;;;;5000822;28;21285;-73
2021/11/15 01:34:53;;;;;;;29.87;16.80;;;;;;;;;;5000532;28;20309;-73
2021/11/15 01:37:18;;;;;;;27.20;16.15;;;;;;;;;;5002162;28;20253;-74
2021/11/15 01:39:44;;;;;;;29.53;16.07;;;;;;;;;;4997747;28;20186;-73
2021/11/15 01:42:10;;;;;;;27.60;16.60;;;;;;;;;;5000191;28;20191;-73
2021/11/15 01:44:36;;;;;;;28.80;16.30;;;;;;;;;;4995874;28;20363;-73
2021/11/15 01:47:02;;;;;;;23.93;14.53;;;;;;;;;;5003225;28;20190;-73
2021/11/15 01:49:27;;;;;;;28.42;16.92;;;;;;;;;;5007375;28;20359;-73
2021/11/15 01:51:53;;;;;;;26.57;15.97;;;;;;;;;;4992100;28;20387;-73
2021/11/15 01:54:18;;;;;;;27.77;16.17;;;;;;;;;;5005084;28;20627;-74
2021/11/15 01:56:44;;;;;;;28.20;15.90;;;;;;;;;;4991666;28;20207;-73
2021/11/15 01:59:09;;;;;;;26.05;15.73;;;;;;;;;;4998713;28;20245;-73
2021/11/15 02:01:35;;;;;;;26.97;15.73;;;;;;;;;;4995737;28;20195;-73
2021/11/15 02:04:00;;;;;;;28.10;15.43;;;;;;;;;;5003896;28;20248;-73
2021/11/15 02:06:26;;;;;;;27.50;15.73;;;;;;;;;;5016474;28;20194;-72
2021/11/15 02:08:52;;;;;;;29.43;15.87;;;;;;;;;;5023474;28;20285;-72
2021/11/15 02:11:18;;;;;;;26.87;15.97;;;;;;;;;;5014478;28;20277;-73
2021/11/15 02:13:45;;;;;;;25.67;15.30;;;;;;;;;;5021740;28;20534;-73
2021/11/15 02:16:10;;;;;;;28.87;14.63;;;;;;;;;;5014747;28;20336;-73
2021/11/15 02:18:36;;;;;;;25.63;14.83;;;;;;;;;;5023041;28;20261;-72
2021/11/15 02:21:06;;;;;;;24.47;14.17;;;;;;;;;;5023900;28;20202;-72
2021/11/15 02:23:39;;;;;;;22.90;13.00;;;;;;;;;;5020109;28;20186;-72
2021/11/15 02:26:07;;;;;;;20.30;12.83;;;;;;;;;;5023095;28;20251;-72
2021/11/15 02:28:36;;;;;;;21.87;12.60;;;;;;;;;;5015139;28;20221;-71
2021/11/15 02:31:03;;;;;;;20.50;11.80;;;;;;;;;;5025338;28;20633;-72
2021/11/15 02:33:31;;;;;;;24.93;13.93;;;;;;;;;;5014468;28;20222;-72
2021/11/15 02:35:57;;;;;;;23.53;13.63;;;;;;;;;;5025649;28;20267;-72
2021/11/15 02:38:23;;;;;;;25.70;14.20;;;;;;;;;;5011675;28;20546;-72
2021/11/15 02:40:49;;;;;;;27.03;14.40;;;;;;;;;;5024467;28;20598;-72
2021/11/15 02:43:14;;;;;;;25.43;14.30;;;;;;;;;;5015517;28;20565;-73
2021/11/15 02:45:40;;;;;;;22.80;13.20;;;;;;;;;;5028765;28;20235;-72
2021/11/15 02:48:05;;;;;;;22.90;12.23;;;;;;;;;;5012313;28;20252;-72
2021/11/15 02:50:32;;;;;;;23.00;13.80;;;;;;;;;;5025275;28;20193;-71
2021/11/15 02:53:00;;;;;;;23.27;13.97;;;;;;;;;;5014675;28;20638;-72
2021/11/15 02:55:27;;;;;;;21.07;13.03;;;;;;;;;;5017667;28;20268;-73
2021/11/15 02:57:53;;;;;;;25.60;14.77;;;;;;;;;;5025181;28;20194;-72
2021/11/15 03:00:26;;;;;;;26.00;14.27;;;;;;;;;;5004546;28;20197;-72
2021/11/15 03:02:54;;;;;;;25.17;14.40;;;;;;;;;;5022571;28;20190;-72
2021/11/15 03:05:29;;;;;;;25.83;14.80;;;;;;;;;;5015790;28;20222;-71
2021/11/15 03:07:55;;;;;;;28.83;16.17;;;;;;;;;;5028201;28;20212;-72
2021/11/15 03:10:22;;;;;;;25.47;14.97;;;;;;;;;;5015246;28;20202;-71
2021/11/15 03:12:47;;;;;;;27.30;14.97;;;;;;;;;;5027288;28;20605;-73
2021/11/15 03:15:26;;;;;;;25.70;14.63;;;;;;;;;;5019247;28;20206;-72
2021/11/15 03:17:56;;;;;;;30.03;15.70;;;;;;;;;;5029490;28;20320;-72
2021/11/15 03:20:23;;;;;;;27.57;15.87;;;;;;;;;;5017368;28;20186;-72
2021/11/15 03:22:48;;;;;;;27.07;15.40;;;;;;;;;;5031518;28;20277;-72
2021/11/15 03:25:15;;;;;;;25.47;14.83;;;;;;;;;;5015911;28;21285;-72
2021/11/15 03:27:40;;;;;;;27.20;14.73;;;;;;;;;;5029087;28;20507;-72
2021/11/15 03:30:06;;;;;;;27.03;15.13;;;;;;;;;;5016810;28;20206;-72
2021/11/15 03:32:32;;;;;;;25.17;14.77;;;;;;;;;;5027593;28;20645;-72
2021/11/15 03:34:59;;;;;;;24.23;14.60;;;;;;;;;;5016511;28;20589;-72
2021/11/15 03:37:25;;;;;;;26.53;14.33;;;;;;;;;;5022355;28;20186;-72
2021/11/15 03:39:50;;;;;;;27.50;15.27;;;;;;;;;;5026016;28;20202;-72
2021/11/15 03:42:15;;;;;;;27.50;14.93;;;;;;;;;;5015770;28;20201;-72
2021/11/15 03:44:41;;;;;;;27.53;15.00;;;;;;;;;;5024790;28;20646;-72
2021/11/15 03:47:06;;;;;;;26.97;14.53;;;;;;;;;;5019720;28;20614;-72
2021/11/15 03:49:31;;;;;;;25.90;15.70;;;;;;;;;;5026982;28;20252;-71
2021/11/15 03:51:57;;;;;;;28.95;15.93;;;;;;;;;;5018474;28;20574;-72
2021/11/15 03:54:22;;;;;;;31.07;16.00;;;;;;;;;;5024534;28;20191;-72
2021/11/15 03:56:47;;;;;;;29.07;15.53;;;;;;;;;;5020346;28;20294;-72
2021/11/15 03:59:13;;;;;;;26.97;14.93;;;;;;;;;;5024242;28;20646;-72
2021/11/15 04:01:39;;;;;;;24.93;14.63;;;;;;;;;;5015872;28;20617;-72
2021/11/15 04:04:07;;;;;;;24.57;15.10;;;;;;;;;;5023524;28;20273;-72
2021/11/15 04:06:38;;;;;;;28.03;15.77;;;;;;;;;;5017191;28;20201;-72
2021/11/15 04:09:08;;;;;;;30.50;16.00;;;;;;;;;;5028870;28;20306;-72
2021/11/15 04:11:36;;;;;;;28.27;16.10;;;;;;;;;;5025972;28;20217;-72
2021/11/15 04:14:04;;;;;;;30.23;16.17;;;;;;;;;;5013349;28;20369;-72
2021/11/15 04:16:30;;;;;;;27.57;15.80;;;;;;;;;;5018433;28;20376;-72
2021/11/15 04:18:59;;;;;;;30.77;16.33;;;;;;;;;;5017796;28;20616;-72
2021/11/15 04:21:27;;;;;;;26.27;15.87;;;;;;;;;;5022352;28;20186;-72
2021/11/15 04:23:53;;;;;;;31.77;17.17;;;;;;;;;;5012999;28;20281;-72
2021/11/15 04:26:18;;;;;;;31.73;17.23;;;;;;;;;;5023280;28;20278;-72
2021/11/15 04:28:44;;;;;;;27.20;15.83;;;;;;;;;;5014372;28;20573;-72
2021/11/15 04:31:09;;;;;;;30.57;17.30;;;;;;;;;;5025727;28;20193;-72
2021/11/15 04:33:35;;;;;;;31.03;16.57;;;;;;;;;;5009228;28;20194;-72
2021/11/15 04:36:00;;;;;;;32.60;16.97;;;;;;;;;;5023283;28;20194;-72
2021/11/15 04:38:26;;;;;;;33.13;18.03;;;;;;;;;;5017026;28;20603;-73
2021/11/15 04:40:51;;;;;;;30.03;16.93;;;;;;;;;;5023485;28;20276;-72
2021/11/15 04:43:17;;;;;;;31.57;17.13;;;;;;;;;;5021005;28;20594;-72
2021/11/15 04:45:42;;;;;;;32.13;17.77;;;;;;;;;;5014409;28;20194;-72
2021/11/15 04:48:08;;;;;;;29.67;16.57;;;;;;;;;;5028325;28;20229;-72
2021/11/15 04:50:34;;;;;;;31.53;16.60;;;;;;;;;;5015583;28;20638;-72
2021/11/15 04:53:01;;;;;;;34.67;16.93;;;;;;;;;;5027599;28;20191;-72
2021/11/15 04:55:26;;;;;;;32.63;17.17;;;;;;;;;;5013490;28;20231;-72
2021/11/15 04:57:54;;;;;;;31.70;15.40;;;;;;;;;;5030001;28;20273;-71
2021/11/15 05:00:24;;;;;;;27.33;13.73;;;;;;;;;;5014777;28;20651;-72
2021/11/15 05:02:50;;;;;;;26.20;14.13;;;;;;;;;;5021590;28;20209;-72
2021/11/15 05:05:17;;;;;;;25.93;13.00;;;;;;;;;;5017383;28;20230;-72
2021/11/15 05:07:43;;;;;;;24.90;12.73;;;;;;;;;;5028570;28;20191;-72
2021/11/15 05:10:09;;;;;;;23.83;12.53;;;;;;;;;;5016281;28;20221;-72
2021/11/15 05:12:35;;;;;;;26.47;13.90;;;;;;;;;;5026330;28;20193;-71
2021/11/15 05:15:11;;;;;;;26.53;13.80;;;;;;;;;;5015240;28;20182;-73
2021/11/15 05:17:36;;;;;;;26.00;13.27;;;;;;;;;;5018981;28;20244;-71
2021/11/15 05:20:03;;;;;;;26.83;13.40;;;;;;;;;;5017138;28;20223;-72
2021/11/15 05:22:28;;;;;;;26.93;13.10;;;;;;;;;;5010324;28;20193;-73
2021/11/15 05:24:53;;;;;;;28.60;13.67;;;;;;;;;;5016320;28;20190;-72
2021/11/15 05:27:19;;;;;;;26.07;12.37;;;;;;;;;;5009649;28;20197;-72
2021/11/15 05:29:44;;;;;;;29.33;13.20;;;;;;;;;;5021794;28;20222;-72
2021/11/15 05:32:10;;;;;;;28.00;13.40;;;;;;;;;;5015689;28;20617;-72
2021/11/15 05:34:35;;;;;;;30.33;13.20;;;;;;;;;;5022025;28;20178;-72
2021/11/15 05:37:01;;;;;;;31.17;13.70;;;;;;;;;;5010196;28;20494;-72
2021/11/15 05:39:26;;;;;;;33.17;14.13;;;;;;;;;;5017115;28;20184;-72
2021/11/15 05:41:51;;;;;;;23.87;12.03;;;;;;;;;;5011587;28;20598;-72
2021/11/15 05:44:17;;;;;;;31.90;12.80;;;;;;;;;;5023887;28;20273;-72
2021/11/15 05:46:42;;;;;;;32.07;13.77;;;;;;;;;;5014943;28;20194;-72
2021/11/15 05:49:08;;;;;;;31.83;14.13;;;;;;;;;;5016374;28;20208;-72
2021/11/15 05:51:33;;;;;;;31.77;14.23;;;;;;;;;;5023898;28;20182;-73
2021/11/15 05:53:58;;;;;;;33.53;14.63;;;;;;;;;;5013092;28;20519;-72
2021/11/15 05:56:25;;;;;;;30.03;14.47;;;;;;;;;;5020089;28;20206;-72
2021/11/15 05:58:50;;;;;;;34.47;14.67;;;;;;;;;;5014610;28;20185;-72
2021/11/15 06:01:16;;;;;;;35.47;15.43;;;;;;;;;;5023963;28;20178;-72
2021/11/15 06:03:41;;;;;;;33.07;14.57;;;;;;;;;;5004389;28;20273;-72
2021/11/15 06:06:07;;;;;;;35.10;14.73;;;;;;;;;;5017171;28;20221;-73
2021/11/15 06:08:32;;;;;;;32.23;15.57;;;;;;;;;;5006891;28;20258;-72
2021/11/15 06:10:58;;;;;;;34.90;15.17;;;;;;;;;;5020114;28;20277;-73
2021/11/15 06:13:23;;;;;;;34.37;15.27;;;;;;;;;;5013354;28;20586;-72
2021/11/15 06:15:48;;;;;;;34.80;16.27;;;;;;;;;;5022199;28;20185;-73
2021/11/15 06:18:15;;;;;;;33.03;14.83;;;;;;;;;;4317426;28;10000846;-73
2021/11/15 06:20:41;;;;;;;34.73;16.13;;;;;;;;;;5011624;28;20503;-73
2021/11/15 06:23:06;;;;;;;33.67;14.83;;;;;;;;;;5015159;28;20190;-72
2021/11/15 06:25:34;;;;;;;31.73;14.87;;;;;;;;;;5011282;28;20619;-72
2021/11/15 06:28:00;;;;;;;34.30;14.97;;;;;;;;;;5019037;28;20182;-73
2021/11/15 06:30:25;;;;;;;35.40;15.90;;;;;;;;;;5015898;28;20287;-72
2021/11/15 06:32:50;;;;;;;32.33;15.30;;;;;;;;;;5015019;28;20190;-73
2021/11/15 06:35:16;;;;;;;34.87;16.47;;;;;;;;;;5006592;28;20775;-73
2021/11/15 06:37:43;;;;;;;35.37;16.13;;;;;;;;;;5021111;28;20660;-72
2021/11/15 06:40:10;;;;;;;33.83;17.07;;;;;;;;;;5010966;28;20262;-72
2021/11/15 06:42:35;;;;;;;36.90;16.70;;;;;;;;;;5022575;28;20190;-72
2021/11/15 06:45:01;;;;;;;33.47;15.73;;;;;;;;;;5013556;28;20704;-71
2021/11/15 06:47:26;;;;;;;35.00;16.53;;;;;;;;;;5023923;28;20553;-72
2021/11/15 06:49:52;;;;;;;33.83;15.03;;;;;;;;;;5017821;28;20213;-72
2021/11/15 06:52:21;;;;;;;38.03;16.63;;;;;;;;;;5016681;28;20218;-72
2021/11/15 06:54:48;;;;;;;34.30;16.17;;;;;;;;;;5016750;28;20282;-72
2021/11/15 06:57:13;;;;;;;33.83;15.87;;;;;;;;;;4662237;28;10000529;-72
2021/11/15 06:59:39;;;;;;;33.40;16.47;;;;;;;;;;5021425;28;20193;-72
2021/11/15 07:02:04;;;;;;;33.33;16.93;;;;;;;;;;5013877;28;20190;-72
2021/11/15 07:04:29;;;;;;;34.67;16.07;;;;;;;;;;5016897;28;20223;-73
2021/11/15 07:06:55;;;;;;;34.33;16.37;;;;;;;;;;5012494;28;20495;-72
2021/11/15 07:09:20;;;;;;;31.90;15.97;;;;;;;;;;5017645;28;20202;-73
2021/11/15 07:11:46;;;;;;;30.63;15.97;;;;;;;;;;5012587;28;20281;-72
2021/11/15 07:14:11;;;;;;;38.90;16.50;;;;;;;;;;5021038;28;20187;-72
2021/11/15 07:16:36;;;;;;;33.80;16.57;;;;;;;;;;5014616;28;20191;-72
2021/11/15 07:19:03;;;;;;;36.87;16.17;;;;;;;;;;5027223;28;20186;-72
2021/11/15 07:21:29;;;;;;;35.67;16.63;;;;;;;;;;5020237;28;20182;-72
2021/11/15 07:23:54;;;;;;;34.07;15.83;;;;;;;;;;5018840;28;20185;-72
2021/11/15 07:26:21;;;;;;;36.93;16.23;;;;;;;;;;5013460;28;20186;-72
2021/11/15 07:28:47;;;;;;;35.17;16.10;;;;;;;;;;5014580;28;20536;-72
2021/11/15 07:31:12;;;;;;;38.53;17.40;;;;;;;;;;5024256;28;20281;-72
2021/11/15 07:33:39;;;;;;;37.10;16.73;;;;;;;;;;5015721;28;20293;-72
2021/11/15 07:36:04;;;;;;;37.50;16.80;;;;;;;;;;5026240;28;20186;-72
2021/11/15 07:38:30;;;;;;;41.57;18.03;;;;;;;;;;5013247;28;20641;-72
2021/11/15 07:40:55;;;;;;;39.47;15.87;;;;;;;;;;5020614;28;20185;-72
2021/11/15 07:43:22;;;;;;;35.33;15.47;;;;;;;;;;5013913;28;20209;-72
2021/11/15 07:45:47;;;;;;;33.43;15.40;;;;;;;;;;5016515;28;20174;-72
2021/11/15 07:48:13;;;;;;;31.20;14.37;;;;;;;;;;5010734;28;20248;-72
2021/11/15 07:50:38;;;;;;;36.30;14.30;;;;;;;;;;5020442;28;20174;-72
2021/11/15 07:53:05;;;;;;;31.53;13.83;;;;;;;;;;5018819;28;20190;-72
2021/11/15 07:55:31;;;;;;;32.47;12.83;;;;;;;;;;5008737;28;20274;-72
2021/11/15 07:57:59;;;;;;;32.83;12.33;;;;;;;;;;5017908;28;20185;-72
2021/11/15 08:00:25;;;;;;;28.13;12.93;;;;;;;;;;5011121;28;20182;-72
2021/11/15 08:02:50;;;;;;;27.47;12.20;;;;;;;;;;5017528;28;20720;-72
2021/11/15 08:05:18;;;;;;;28.13;12.37;;;;;;;;;;5009536;28;20230;-72
2021/11/15 08:07:44;;;;;;;30.90;13.20;;;;;;;;;;5023368;28;20207;-72
2021/11/15 08:10:12;;;;;;;35.10;12.77;;;;;;;;;;5017914;28;20221;-72
2021/11/15 08:12:43;;;;;;;30.70;13.90;;;;;;;;;;5019038;28;20221;-72
2021/11/15 08:15:10;;;;;;;33.07;13.87;;;;;;;;;;5011590;28;20327;-72
2021/11/15 08:17:37;;;;;;;34.30;13.87;;;;;;;;;;5024593;28;20197;-72
2021/11/15 08:20:09;;;;;;;35.53;13.90;;;;;;;;;;5017927;28;20193;-72
2021/11/15 08:22:35;;;;;;;33.73;13.70;;;;;;;;;;5023955;28;20209;-72
2021/11/15 08:25:00;;;;;;;31.23;13.00;;;;;;;;;;5016585;28;20586;-72
2021/11/15 08:27:27;;;;;;;23.37;11.47;;;;;;;;;;5026408;28;20263;-72
2021/11/15 08:29:53;;;;;;;30.30;12.53;;;;;;;;;;5020843;28;20236;-72
2021/11/15 08:32:24;;;;;;;32.00;12.97;;;;;;;;;;5010985;28;20291;-72
2021/11/15 08:34:50;;;;;;;29.70;12.43;;;;;;;;;;5015082;28;20264;-72
2021/11/15 08:37:16;;;;;;;25.53;11.70;;;;;;;;;;5019805;28;20225;-72
2021/11/15 08:39:41;;;;;;;29.30;11.47;;;;;;;;;;5021064;28;20215;-72
2021/11/15 08:42:09;;;;;;;23.57;9.87;;;;;;;;;;5015040;28;20221;-73
2021/11/15 08:44:38;;;;;;;23.97;10.03;;;;;;;;;;5023446;28;20277;-73
2021/11/15 08:47:04;;;;;;;23.97;10.40;;;;;;;;;;5017918;28;20564;-72
2021/11/15 08:49:30;;;;;;;22.07;9.57;;;;;;;;;;5022855;28;20240;-73
2021/11/15 08:52:00;;;;;;;24.60;9.97;;;;;;;;;;5018205;28;20194;-72
2021/11/15 08:54:26;;;;;;;21.10;9.50;;;;;;;;;;5019190;28;20656;-72
2021/11/15 08:56:54;;;;;;;23.17;9.47;;;;;;;;;;5010238;28;20222;-71
2021/11/15 08:59:20;;;;;;;23.37;9.03;;;;;;;;;;5022540;28;20185;-72
2021/11/15 09:01:46;;;;;;;20.50;8.57;;;;;;;;;;5003925;28;20297;-72
2021/11/15 09:04:12;;;;;;;21.37;8.83;;;;;;;;;;5021206;28;20238;-72
2021/11/15 09:06:38;;;;;;;16.70;8.37;;;;;;;;;;5012606;28;20205;-72
2021/11/15 09:09:07;;;;;;;22.90;8.67;;;;;;;;;;5013194;28;20218;-72
2021/11/15 09:11:33;;;;;;;25.93;9.63;;;;;;;;;;5015045;28;20192;-72
2021/11/15 09:13:58;;;;;;;20.03;8.57;;;;;;;;;;5012190;28;20642;-72
2021/11/15 09:16:25;;;;;;;21.43;8.67;;;;;;;;;;5018110;28;20190;-72
2021/11/15 09:18:50;;;;;;;23.67;9.70;;;;;;;;;;5013284;28;20187;-71
2021/11/15 09:21:17;;;;;;;20.13;8.50;;;;;;;;;;5016961;28;20202;-72
2021/11/15 09:23:44;;;;;;;20.83;8.93;;;;;;;;;;5012658;28;20332;-72
2021/11/15 09:26:12;;;;;;;23.60;9.83;;;;;;;;;;5019466;28;20263;-71
2021/11/15 09:28:38;;;;;;;25.77;10.07;;;;;;;;;;5011925;28;20206;-72
2021/11/15 09:31:06;;;;;;;22.50;9.57;;;;;;;;;;5019988;28;20194;-73
2021/11/15 09:33:32;;;;;;;28.63;11.67;;;;;;;;;;5013067;28;20211;-73
2021/11/15 09:35:58;;;;;;;24.43;10.00;;;;;;;;;;5019622;28;20499;-72
2021/11/15 09:38:25;;;;;;;26.27;10.60;;;;;;;;;;5005913;28;20190;-72
2021/11/15 09:40:57;;;;;;;30.63;11.57;;;;;;;;;;5023075;28;20278;-72
2021/11/15 09:43:37;;;;;;;28.60;11.60;;;;;;;;;;5019531;28;20181;-72
2021/11/15 09:46:07;;;;;;;33.30;12.97;;;;;;;;;;5022726;28;20201;-72
2021/11/15 09:48:35;;;;;;;31.13;13.57;;;;;;;;;;5018226;28;20211;-72
2021/11/15 09:51:02;;;;;;;31.33;12.80;;;;;;;;;;5014127;28;20205;-73
2021/11/15 09:53:29;;;;;;;32.53;13.57;;;;;;;;;;5013879;28;20183;-73
2021/11/15 09:55:55;;;;;;;32.13;14.40;;;;;;;;;;5011619;28;20206;-73
2021/11/15 09:58:21;;;;;;;38.60;15.40;;;;;;;;;;5015210;28;20194;-72
2021/11/15 10:00:46;;;;;;;36.70;14.77;;;;;;;;;;5009835;28;20193;-73
2021/11/15 10:03:12;;;;;;;38.00;16.47;;;;;;;;;;5015317;28;20181;-72
2021/11/15 10:05:37;;;;;;;37.47;15.70;;;;;;;;;;5010714;28;20634;-73
2021/11/15 10:08:05;;;;;;;36.30;15.77;;;;;;;;;;5020185;28;20235;-72
2021/11/15 10:10:46;;;;;;;37.23;16.77;;;;;;;;;;5008943;28;20526;-73
2021/11/15 10:13:21;;;;;;;39.33;16.10;;;;;;;;;;5018358;28;20293;-73
2021/11/15 10:16:01;;;;;;;42.73;16.80;;;;;;;;;;5015542;28;20306;-72
2021/11/15 10:18:51;;;;;;;35.13;16.33;;;;;;;;;;5025713;28;20252;-72
2021/11/15 10:21:25;;;;;;;36.87;15.63;;;;;;;;;;5036825;28;20704;-72
2021/11/15 10:24:04;;;;;;;34.87;17.00;;;;;;;;;;5023254;28;20794;-72
2021/11/15 10:26:49;;;;;;;38.80;16.07;;;;;;;;;;5011282;28;20193;-72
2021/11/15 10:29:27;;;;;;;36.40;15.60;;;;;;;;;;5025018;28;20948;-72
2021/11/15 10:32:02;;;;;;;36.50;16.63;;;;;;;;;;5014517;28;20271;-72
2021/11/15 10:34:33;;;;;;;34.90;15.10;;;;;;;;;;5020071;28;20197;-73
2021/11/15 10:36:58;;;;;;;35.00;15.07;;;;;;;;;;5013629;28;20560;-72
2021/11/15 10:39:44;;;;;;;37.80;16.17;;;;;;;;;;5024831;28;20182;-72
2021/11/15 10:42:17;;;;;;;34.57;15.63;;;;;;;;;;5012050;28;20197;-72
2021/11/15 10:44:53;;;;;;;44.17;16.77;;;;;;;;;;5017123;28;20733;-73
2021/11/15 10:47:25;;;;;;;36.87;16.33;;;;;;;;;;5014001;28;20190;-72
2021/11/15 10:50:27;;;;;;;35.43;14.67;;;;;;;;;;5020888;28;20206;-72
2021/11/15 10:53:12;;;;;;;38.10;16.07;;;;;;;;;;5012815;28;20206;-72
2021/11/15 10:55:45;;;;;;;41.17;16.63;;;;;;;;;;5020391;28;20212;-73
2021/11/15 10:58:15;;;;;;;33.50;15.10;;;;;;;;;;5011895;28;20186;-73
2021/11/15 11:00:43;;;;;;;36.97;15.93;;;;;;;;;;5016230;28;20194;-73
2021/11/15 11:03:12;;;;;;;36.07;16.33;;;;;;;;;;5008664;28;20179;-73
2021/11/15 11:05:40;;;;;;;40.10;17.33;;;;;;;;;;5023262;28;20240;-73
2021/11/15 11:08:10;;;;;;;37.00;17.30;;;;;;;;;;5016188;28;20190;-73
2021/11/15 11:10:47;;;;;;;44.90;19.73;;;;;;;;;;5026200;28;20299;-72
2021/11/15 11:13:15;;;;;;;42.13;18.50;;;;;;;;;;5017040;28;20216;-72
2021/11/15 11:15:48;;;;;;;43.93;20.50;;;;;;;;;;5024758;28;20289;-74
2021/11/15 11:26:20;;;;;;;46.87;21.60;;;;;;;;;;5019714;28;20706;-73
2021/11/15 11:28:54;;;;;;;47.00;22.63;;;;;;;;;;5022546;28;20693;-73
2021/11/15 11:31:21;;;;;;;50.20;24.37;;;;;;;;;;5023649;28;20645;-72
2021/11/15 11:33:47;;;;;;;53.87;24.47;;;;;;;;;;5023244;28;20564;-72
2021/11/15 11:36:13;;;;;;;57.40;25.40;;;;;;;;;;5014977;28;20191;-73
2021/11/15 11:38:40;;;;;;;55.87;26.80;;;;;;;;;;5021467;28;20195;-72
2021/11/15 11:41:06;;;;;;;57.60;26.80;;;;;;;;;;5012589;28;20206;-72
2021/11/15 11:43:32;;;;;;;61.27;25.53;;;;;;;;;;5023489;28;20197;-74
2021/11/15 11:45:58;;;;;;;64.23;27.77;;;;;;;;;;5006077;28;20191;-73
2021/11/15 11:48:25;;;;;;;65.60;27.47;;;;;;;;;;5022478;28;20277;-72
2021/11/15 11:50:52;;;;;;;67.40;27.40;;;;;;;;;;5013580;28;20466;-73
2021/11/15 11:53:21;;;;;;;68.40;27.80;;;;;;;;;;5021896;28;20546;-73
2021/11/15 11:55:47;;;;;;;66.97;27.80;;;;;;;;;;5011168;28;20693;-73
2021/11/15 11:58:24;;;;;;;72.67;27.70;;;;;;;;;;5023352;28;20225;-72
2021/11/15 12:00:52;;;;;;;71.67;29.33;;;;;;;;;;5011808;28;20201;-73
2021/11/15 12:03:18;;;;;;;71.60;28.97;;;;;;;;;;5023216;28;20245;-73
2021/11/15 12:05:43;;;;;;;65.80;27.17;;;;;;;;;;5021006;28;20190;-74
2021/11/15 12:08:09;;;;;;;70.30;28.20;;;;;;;;;;5015875;28;20186;-73
2021/11/15 12:10:49;;;;;;;70.60;27.57;;;;;;;;;;5019933;28;20202;-73
2021/11/15 12:13:17;;;;;;;67.43;27.80;;;;;;;;;;5014180;28;20190;-73
2021/11/15 12:16:02;;;;;;;78.33;28.10;;;;;;;;;;5020869;28;20191;-72
2021/11/15 12:18:33;;;;;;;76.23;29.07;;;;;;;;;;5020353;28;20190;-72
2021/11/15 12:21:02;;;;;;;75.57;29.00;;;;;;;;;;5022358;28;20187;-72
2021/11/15 12:23:34;;;;;;;72.57;27.97;;;;;;;;;;5007835;28;20191;-73
2021/11/15 12:26:06;;;;;;;88.60;30.17;;;;;;;;;;5023954;28;20201;-72
2021/11/15 12:28:32;;;;;;;74.30;28.93;;;;;;;;;;5015103;28;20272;-72
2021/11/15 12:30:58;;;;;;;82.87;29.27;;;;;;;;;;5021419;28;20190;-72
2021/11/15 12:33:32;;;;;;;74.73;29.80;;;;;;;;;;5008969;28;20189;-72
2021/11/15 12:35:58;;;;;;;81.83;31.33;;;;;;;;;;5024904;28;20178;-72
2021/11/15 12:38:45;;;;;;;78.73;29.50;;;;;;;;;;5006010;28;20186;-72
2021/11/15 12:41:16;;;;;;;79.37;30.00;;;;;;;;;;5019873;28;20174;-73
2021/11/15 12:44:09;;;;;;;77.17;29.63;;;;;;;;;;5012892;28;20201;-73
2021/11/15 12:47:15;;;;;;;81.63;30.07;;;;;;;;;;5020108;28;20195;-72
2021/11/15 12:49:44;;;;;;;75.93;27.83;;;;;;;;;;5008021;28;20234;-73
2021/11/15 12:52:10;;;;;;;86.90;28.87;;;;;;;;;;5015008;28;20198;-72
2021/11/15 12:54:53;;;;;;;75.57;26.87;;;;;;;;;;5011834;28;20516;-73
2021/11/15 12:57:18;;;;;;;77.43;28.77;;;;;;;;;;5019980;28;20601;-72
2021/11/15 12:59:45;;;;;;;77.33;28.03;;;;;;;;;;5013521;28;20190;-72
2021/11/15 13:02:10;;;;;;;80.63;27.97;;;;;;;;;;5017954;28;20585;-74
2021/11/15 13:04:38;;;;;;;74.33;26.77;;;;;;;;;;5013133;28;20298;-73
2021/11/15 13:07:05;;;;;;;72.90;27.10;;;;;;;;;;5020625;28;20585;-72
2021/11/15 13:09:31;;;;;;;76.73;27.60;;;;;;;;;;5013080;28;20206;-72
2021/11/15 13:11:57;;;;;;;69.23;26.43;;;;;;;;;;5021217;28;20192;-72
2021/11/15 13:14:22;;;;;;;78.43;27.37;;;;;;;;;;5013186;28;20182;-72
2021/11/15 13:16:47;;;;;;;74.70;27.23;;;;;;;;;;5016865;28;20200;-72
2021/11/15 13:19:17;;;;;;;67.80;27.17;;;;;;;;;;5012738;28;20212;-71
2021/11/15 13:21:44;;;;;;;82.13;28.53;;;;;;;;;;5013794;28;20439;-72
2021/11/15 13:24:10;;;;;;;72.13;28.07;;;;;;;;;;5022921;28;20189;-72
2021/11/15 13:26:39;;;;;;;69.47;26.97;;;;;;;;;;5015175;28;20187;-72
2021/11/15 13:29:05;;;;;;;69.90;27.90;;;;;;;;;;5013622;28;20242;-72
2021/11/15 13:31:32;;;;;;;68.93;27.73;;;;;;;;;;5012283;28;20669;-71
2021/11/15 13:33:57;;;;;;;63.33;26.13;;;;;;;;;;5019043;28;20594;-72
2021/11/15 13:36:23;;;;;;;59.53;26.87;;;;;;;;;;5012211;28;20190;-72
2021/11/15 13:38:48;;;;;;;61.67;26.33;;;;;;;;;;5011247;28;20187;-72
2021/11/15 13:41:14;;;;;;;56.50;25.80;;;;;;;;;;5013644;28;20193;-72
2021/11/15 13:43:41;;;;;;;59.63;27.30;;;;;;;;;;5021381;28;20182;-72
2021/11/15 13:46:08;;;;;;;58.00;25.67;;;;;;;;;;5011389;28;20194;-72
2021/11/15 13:48:35;;;;;;;57.17;26.67;;;;;;;;;;5019686;28;20708;-72
2021/11/15 13:51:01;;;;;;;59.57;25.83;;;;;;;;;;5021786;28;20276;-72
2021/11/15 13:53:27;;;;;;;52.13;25.10;;;;;;;;;;5008419;28;20842;-72
2021/11/15 13:55:52;;;;;;;57.23;26.47;;;;;;;;;;5022574;28;20622;-72
2021/11/15 13:58:18;;;;;;;54.43;25.90;;;;;;;;;;5006766;28;20198;-72
2021/11/15 14:00:43;;;;;;;62.07;26.57;;;;;;;;;;5021450;28;20174;-72
2021/11/15 14:03:09;;;;;;;54.50;26.30;;;;;;;;;;5007557;28;20198;-72
2021/11/15 14:05:36;;;;;;;56.47;26.17;;;;;;;;;;5020737;28;20275;-72
2021/11/15 14:08:02;;;;;;;59.53;27.33;;;;;;;;;;5009495;28;20201;-72
2021/11/15 14:10:28;;;;;;;53.70;26.47;;;;;;;;;;5016673;28;20215;-72
2021/11/15 14:12:53;;;;;;;55.27;26.97;;;;;;;;;;5010634;28;20682;-71
2021/11/15 14:15:19;;;;;;;55.63;27.07;;;;;;;;;;4320930;28;10000001;-72
2021/11/15 14:17:44;;;;;;;60.10;27.30;;;;;;;;;;5009253;28;20238;-72
2021/11/15 14:20:12;;;;;;;63.47;27.53;;;;;;;;;;5013508;28;20555;-71
2021/11/15 14:22:39;;;;;;;60.50;26.93;;;;;;;;;;5014192;28;20226;-72
2021/11/15 14:25:07;;;;;;;58.03;28.07;;;;;;;;;;5006505;28;20201;-72
2021/11/15 14:27:34;;;;;;;55.97;27.90;;;;;;;;;;5020177;28;20202;-71